createdAt,value
2018-03-20T00:02:05.636Z,73.40
2018-03-20T00:04:33.318Z,73.40
2018-03-20T00:07:01.335Z,73.00
2018-03-20T00:09:31.775Z,73.00
2018-03-20T00:12:00.139Z,73.50
2018-03-20T00:14:27.981Z,73.40
2018-03-20T00:16:55.718Z,73.90
2018-03-20T00:19:23.809Z,74.30
2018-03-20T00:21:51.374Z,74.20
2018-03-20T00:24:19.044Z,74.20
2018-03-20T00:26:46.658Z,74.00
2018-03-20T00:29:14.645Z,72.70
2018-03-20T00:31:42.497Z,72.90
2018-03-20T00:34:10.055Z,72.20
2018-03-20T00:36:37.619Z,71.90
2018-03-20T00:39:05.594Z,69.90
2018-03-20T00:41:33.549Z,69.50
2018-03-20T00:44:01.143Z,69.50
2018-03-20T00:46:28.695Z,69.10
2018-03-20T00:48:56.639Z,69.90
2018-03-20T00:51:24.408Z,69.90
2018-03-20T00:53:52.383Z,71.10
2018-03-20T00:56:19.902Z,71.10
2018-03-20T00:58:47.450Z,71.50
2018-03-20T01:01:14.995Z,71.50
2018-03-20T01:03:42.690Z,71.90
2018-03-20T01:06:10.561Z,70.70
2018-03-20T01:08:38.151Z,70.70
2018-03-20T01:11:06.134Z,69.40
2018-03-20T01:13:36.691Z,69.40
2018-03-20T01:16:04.690Z,68.80
2018-03-20T01:18:32.302Z,68.80
2018-03-20T01:20:59.848Z,68.90
2018-03-20T01:23:28.716Z,67.80
2018-03-20T01:25:56.862Z,67.80
2018-03-20T01:28:24.417Z,68.50
2018-03-20T01:30:52.014Z,70.10
2018-03-20T01:33:20.170Z,71.10
2018-03-20T01:35:47.749Z,71.70
2018-03-20T01:38:15.297Z,72.80
2018-03-20T01:40:42.910Z,73.30
2018-03-20T01:43:10.555Z,73.80
2018-03-20T01:45:38.114Z,73.50
2018-03-20T01:48:05.701Z,73.70
2018-03-20T01:50:33.249Z,74.30
2018-03-20T01:53:12.634Z,74.30
2018-03-20T01:55:40.209Z,74.70
2018-03-20T01:58:07.789Z,74.60
2018-03-20T02:00:35.725Z,74.70
2018-03-20T02:03:03.294Z,74.70
2018-03-20T02:05:31.253Z,75.20
2018-03-20T02:07:58.825Z,75.20
2018-03-20T02:10:26.392Z,74.70
2018-03-20T02:12:54.326Z,74.70
2018-03-20T02:15:21.941Z,74.70
2018-03-20T02:17:49.495Z,74.20
2018-03-20T02:20:17.054Z,74.20
2018-03-20T02:22:44.670Z,74.20
2018-03-20T02:25:12.251Z,74.40
2018-03-20T02:27:39.780Z,74.80
2018-03-20T02:30:07.402Z,74.30
2018-03-20T02:32:34.966Z,74.20
2018-03-20T02:35:02.555Z,74.60
2018-03-20T02:37:30.085Z,74.50
2018-03-20T02:39:57.744Z,74.60
2018-03-20T02:42:25.225Z,74.20
2018-03-20T02:44:53.107Z,74.60
2018-03-20T02:47:20.641Z,75.10
2018-03-20T02:49:48.241Z,75.00
2018-03-20T02:52:22.353Z,75.50
2018-03-20T02:54:49.916Z,75.50
2018-03-20T02:57:17.480Z,75.50
2018-03-20T02:59:45.049Z,75.80
2018-03-20T03:02:12.610Z,75.80
2018-03-20T03:04:40.619Z,76.80
2018-03-20T03:07:08.194Z,76.80
2018-03-20T03:09:35.752Z,76.80
2018-03-20T03:12:03.333Z,76.90
2018-03-20T03:14:30.909Z,77.10
2018-03-20T03:16:58.492Z,77.20
2018-03-20T03:19:27.147Z,77.20
2018-03-20T03:21:54.745Z,77.20
2018-03-20T03:24:22.734Z,78.10
2018-03-20T03:26:50.554Z,78.10
2018-03-20T03:29:18.146Z,77.70
2018-03-20T03:31:45.725Z,78.50
2018-03-20T03:34:13.262Z,78.80
2018-03-20T03:36:40.907Z,79.00
2018-03-20T03:39:08.882Z,79.00
2018-03-20T03:41:36.844Z,78.90
2018-03-20T03:44:04.400Z,78.90
2018-03-20T03:46:32.367Z,77.50
2018-03-20T03:49:00.309Z,77.60
2018-03-20T03:51:27.858Z,77.70
2018-03-20T03:53:55.410Z,78.70
2018-03-20T03:56:22.934Z,79.10
2018-03-20T03:58:51.290Z,79.10
2018-03-20T04:01:18.848Z,79.00
2018-03-20T04:03:46.818Z,82.60
2018-03-20T04:06:14.379Z,82.60
2018-03-20T04:08:41.952Z,82.90
2018-03-20T04:11:09.509Z,83.20
2018-03-20T04:13:37.463Z,83.10
2018-03-20T04:16:05.048Z,83.10
2018-03-20T04:18:32.601Z,83.60
2018-03-20T04:21:00.567Z,83.70
2018-03-20T04:23:28.536Z,83.00
2018-03-20T04:25:56.549Z,82.10
2018-03-20T04:28:24.106Z,82.00
2018-03-20T04:30:51.693Z,82.50
2018-03-20T04:33:19.282Z,82.20
2018-03-20T04:35:47.226Z,82.60
2018-03-20T04:38:14.784Z,82.60
2018-03-20T04:40:43.281Z,83.30
2018-03-20T04:43:10.845Z,83.90
2018-03-20T04:45:38.418Z,85.00
2018-03-20T04:48:06.354Z,83.10
2018-03-20T04:50:33.948Z,83.10
2018-03-20T04:53:01.928Z,82.40
2018-03-20T04:55:29.547Z,82.40
2018-03-20T04:57:57.134Z,82.30
2018-03-20T05:00:25.097Z,81.90
2018-03-20T05:02:53.063Z,82.70
2018-03-20T05:05:21.001Z,82.90
2018-03-20T05:07:48.602Z,82.90
2018-03-20T05:10:16.584Z,83.50
2018-03-20T05:12:44.219Z,83.50
2018-03-20T05:15:11.764Z,83.90
2018-03-20T05:17:39.314Z,84.00
2018-03-20T05:23:34.275Z,84.00
2018-03-20T05:26:02.201Z,85.00
2018-03-20T05:28:29.814Z,85.00
2018-03-20T05:30:57.762Z,84.90
2018-03-20T05:33:25.734Z,83.40
2018-03-20T05:35:53.282Z,83.40
2018-03-20T05:38:20.853Z,83.70
2018-03-20T05:40:49.355Z,83.50
2018-03-20T05:43:18.124Z,84.40
2018-03-20T05:45:45.885Z,84.40
2018-03-20T05:51:23.712Z,84.20
2018-03-20T05:53:51.715Z,83.90
2018-03-20T05:56:19.239Z,83.90
2018-03-20T05:58:47.912Z,80.70
2018-03-20T06:01:15.445Z,80.70
2018-03-20T06:03:43.031Z,79.30
2018-03-20T06:06:10.629Z,80.90
2018-03-20T06:08:38.127Z,80.10
2018-03-20T06:11:05.708Z,77.60
2018-03-20T06:13:33.261Z,75.90
2018-03-20T06:16:00.826Z,75.80
2018-03-20T06:18:28.397Z,74.00
2018-03-20T06:20:56.349Z,73.00
2018-03-20T06:23:23.902Z,73.00
2018-03-20T06:25:51.463Z,73.50
2018-03-20T06:28:19.073Z,75.60
2018-03-20T06:30:46.620Z,75.70
2018-03-20T06:33:14.563Z,76.60
2018-03-20T06:35:42.907Z,76.60
2018-03-20T06:38:10.860Z,76.10
2018-03-20T06:40:38.461Z,76.00
2018-03-20T06:43:05.996Z,74.60
2018-03-20T06:45:33.589Z,75.40
2018-03-20T06:48:01.153Z,75.30
2018-03-20T06:50:29.786Z,75.30
2018-03-20T06:52:57.332Z,73.70
2018-03-20T06:55:24.864Z,73.70
2018-03-20T06:57:52.908Z,71.30
2018-03-20T07:00:20.484Z,71.30
2018-03-20T07:02:48.038Z,69.70
2018-03-20T07:05:15.637Z,67.50
2018-03-20T07:07:43.669Z,67.00
2018-03-20T07:10:11.221Z,67.00
2018-03-20T07:12:38.809Z,66.50
2018-03-20T07:15:06.800Z,67.40
2018-03-20T07:17:34.344Z,67.40
2018-03-20T07:20:02.316Z,66.60
2018-03-20T07:22:30.281Z,68.30
2018-03-20T07:24:58.809Z,66.90
2018-03-20T07:27:26.370Z,66.90
2018-03-20T07:29:53.924Z,66.90
2018-03-20T07:32:21.520Z,66.60
2018-03-20T07:34:49.090Z,66.00
2018-03-20T07:37:16.694Z,67.00
2018-03-20T07:39:44.312Z,66.90
2018-03-20T07:42:11.888Z,68.20
2018-03-20T07:44:39.861Z,70.50
2018-03-20T07:47:07.777Z,70.50
2018-03-20T07:49:36.302Z,71.60
2018-03-20T07:52:04.042Z,70.80
2018-03-20T07:54:32.205Z,71.10
2018-03-20T07:57:00.933Z,71.20
2018-03-20T07:59:28.824Z,71.50
2018-03-20T08:01:56.749Z,71.80
2018-03-20T08:04:24.775Z,72.10
2018-03-20T08:06:52.646Z,72.00
2018-03-20T08:09:20.533Z,72.40
2018-03-20T08:11:48.547Z,74.10
2018-03-20T08:14:16.617Z,74.50
2018-03-20T08:16:44.649Z,74.10
2018-03-20T08:19:12.846Z,74.10
2018-03-20T08:21:40.839Z,73.70
2018-03-20T08:24:08.813Z,74.00
2018-03-20T08:26:36.391Z,74.10
2018-03-20T08:29:03.962Z,73.50
2018-03-20T08:31:31.777Z,73.10
2018-03-20T08:33:59.705Z,71.60
2018-03-20T08:36:27.352Z,71.60
2018-03-20T08:38:54.985Z,72.80
2018-03-20T08:41:22.980Z,73.70
2018-03-20T08:43:50.696Z,73.80
2018-03-20T08:46:20.758Z,72.20
2018-03-20T08:48:49.693Z,71.90
2018-03-20T08:51:17.681Z,72.80
2018-03-20T08:53:45.802Z,73.60
2018-03-20T08:56:14.395Z,73.60
2018-03-20T08:58:42.017Z,73.60
2018-03-20T09:01:09.573Z,73.40
2018-03-20T09:03:37.570Z,73.00
2018-03-20T09:06:05.132Z,73.00
2018-03-20T09:08:32.691Z,73.50
2018-03-20T09:11:00.290Z,72.60
2018-03-20T09:13:27.889Z,72.90
2018-03-20T09:15:55.474Z,74.30
2018-03-20T09:18:23.111Z,72.60
2018-03-20T09:20:51.122Z,73.70
2018-03-20T09:23:18.698Z,73.70
2018-03-20T09:25:46.399Z,73.40
2018-03-20T09:28:14.331Z,71.50
2018-03-20T09:30:42.004Z,69.60
2018-03-20T09:33:09.598Z,66.90
2018-03-20T09:35:37.201Z,66.90
2018-03-20T09:38:04.939Z,64.30
2018-03-20T09:40:32.487Z,65.20
2018-03-20T09:43:00.061Z,64.80
2018-03-20T09:45:28.975Z,66.80
2018-03-20T09:47:57.035Z,63.10
2018-03-20T09:50:24.635Z,63.40
2018-03-20T09:52:53.761Z,63.00
2018-03-20T09:55:21.503Z,62.10
2018-03-20T09:57:49.486Z,62.20
2018-03-20T10:00:17.076Z,62.20
2018-03-20T10:02:45.041Z,64.60
2018-03-20T10:05:13.085Z,65.50
2018-03-20T10:07:40.750Z,66.30
2018-03-20T10:10:08.312Z,66.40
2018-03-20T10:12:35.893Z,67.10
2018-03-20T10:15:03.701Z,68.10
2018-03-20T10:17:31.282Z,69.10
2018-03-20T10:19:59.741Z,67.20
2018-03-20T10:22:27.328Z,67.30
2018-03-20T10:24:54.922Z,67.10
2018-03-20T10:27:22.453Z,66.50
2018-03-20T10:29:50.401Z,63.10
2018-03-20T10:32:18.337Z,62.60
2018-03-20T10:34:45.949Z,62.60
2018-03-20T10:37:13.492Z,62.70
2018-03-20T10:39:41.441Z,60.70
2018-03-20T10:42:09.069Z,60.70
2018-03-20T10:44:36.598Z,59.80
2018-03-20T10:47:04.200Z,60.80
2018-03-20T10:49:31.755Z,58.60
2018-03-20T10:52:00.175Z,57.80
2018-03-20T10:54:27.722Z,57.80
2018-03-20T10:56:55.274Z,58.00
2018-03-20T10:59:22.803Z,53.50
2018-03-20T11:01:50.372Z,53.60
2018-03-20T11:04:17.934Z,52.30
2018-03-20T11:06:45.529Z,54.40
2018-03-20T11:09:13.683Z,57.00
2018-03-20T11:11:41.290Z,57.00
2018-03-20T11:14:28.247Z,58.60
2018-03-20T11:17:07.720Z,59.10
2018-03-20T11:19:35.681Z,60.70
2018-03-20T11:22:03.242Z,60.70
2018-03-20T11:24:31.203Z,59.70
2018-03-20T11:26:59.606Z,59.70
2018-03-20T11:29:27.591Z,60.40
2018-03-20T11:31:55.208Z,60.40
2018-03-20T11:34:22.762Z,58.30
2018-03-20T11:36:50.364Z,59.50
2018-03-20T11:39:18.962Z,57.10
2018-03-20T11:41:46.512Z,57.20
2018-03-20T11:44:14.090Z,57.10
2018-03-20T11:46:41.869Z,55.70
2018-03-20T11:49:09.430Z,56.30
2018-03-20T11:51:36.983Z,56.00
2018-03-20T11:54:04.554Z,55.40
2018-03-20T11:56:32.681Z,56.00
2018-03-20T11:59:00.624Z,59.00
2018-03-20T12:01:29.267Z,59.00
2018-03-20T12:03:56.835Z,59.30
2018-03-20T12:06:24.385Z,58.70
2018-03-20T12:08:51.909Z,59.70
2018-03-20T12:11:19.878Z,62.00
2018-03-20T12:13:47.813Z,63.50
2018-03-20T12:16:15.417Z,63.50
2018-03-20T12:18:43.872Z,65.80
2018-03-20T12:21:11.838Z,66.60
2018-03-20T12:23:39.421Z,66.60
2018-03-20T12:26:07.004Z,67.30
2018-03-20T12:28:34.564Z,69.10
2018-03-20T12:31:02.109Z,69.20
2018-03-20T12:33:30.379Z,69.90
2018-03-20T12:35:57.938Z,70.00
2018-03-20T12:38:25.897Z,70.60
2018-03-20T12:40:53.829Z,71.30
2018-03-20T12:43:21.389Z,71.30
2018-03-20T12:45:48.951Z,71.20
2018-03-20T12:48:16.521Z,71.70
2018-03-20T12:50:44.083Z,71.70
2018-03-20T12:53:12.352Z,72.80
2018-03-20T12:55:39.923Z,72.50
2018-03-20T12:58:07.487Z,72.60
2018-03-20T13:00:36.174Z,74.80
2018-03-20T13:03:04.164Z,75.50
2018-03-20T13:05:32.086Z,75.20
2018-03-20T13:07:59.667Z,75.20
2018-03-20T13:10:27.198Z,75.60
2018-03-20T13:12:54.752Z,75.90
2018-03-20T13:15:22.327Z,76.80
2018-03-20T13:17:49.878Z,77.50
2018-03-20T13:20:17.414Z,76.60
2018-03-20T13:22:45.713Z,77.40
2018-03-20T13:25:13.276Z,76.70
2018-03-20T13:27:40.813Z,77.40
2018-03-20T13:30:08.349Z,77.70
2018-03-20T13:32:35.886Z,77.40
2018-03-20T13:35:04.613Z,76.80
2018-03-20T13:37:32.227Z,76.80
2018-03-20T13:39:59.876Z,75.80
2018-03-20T13:42:27.480Z,75.10
2018-03-20T13:44:55.459Z,75.10
2018-03-20T13:47:23.026Z,75.10
2018-03-20T13:49:50.549Z,76.30
2018-03-20T13:52:18.526Z,77.50
2018-03-20T13:54:46.656Z,78.40
2018-03-20T13:57:14.225Z,78.40
2018-03-20T13:59:42.384Z,78.70
2018-03-20T14:02:09.987Z,78.80
2018-03-20T14:04:37.600Z,78.20
2018-03-20T14:07:05.539Z,77.40
2018-03-20T14:09:33.116Z,77.40
2018-03-20T14:12:00.655Z,76.60
2018-03-20T14:14:28.264Z,76.30
2018-03-20T14:16:55.806Z,75.60
2018-03-20T14:19:23.378Z,75.20
2018-03-20T14:21:51.147Z,75.70
2018-03-20T14:24:18.741Z,75.60
2018-03-20T14:26:46.676Z,76.40
2018-03-20T14:29:14.233Z,76.40
2018-03-20T14:31:41.786Z,77.70
2018-03-20T14:34:09.337Z,78.20
2018-03-20T14:36:36.897Z,78.30
2018-03-20T14:39:04.440Z,79.20
2018-03-20T14:41:32.023Z,79.70
2018-03-20T14:43:59.616Z,78.90
2018-03-20T14:46:27.125Z,79.00
2018-03-20T14:48:54.695Z,80.00
2018-03-20T14:51:22.304Z,79.00
2018-03-20T14:53:50.321Z,78.50
2018-03-20T14:56:17.886Z,78.60
2018-03-20T14:58:45.465Z,78.90
2018-03-20T15:01:13.641Z,77.40
2018-03-20T15:03:41.200Z,77.60
2018-03-20T15:06:09.203Z,76.90
2018-03-20T15:08:37.163Z,77.10
2018-03-20T15:11:05.258Z,76.00
2018-03-20T15:13:32.867Z,76.30
2018-03-20T15:16:00.423Z,76.20
2018-03-20T15:18:27.984Z,75.70
2018-03-20T15:20:55.551Z,75.70
2018-03-20T15:23:25.374Z,76.40
2018-03-20T15:25:52.918Z,76.40
2018-03-20T15:28:20.477Z,76.20
2018-03-20T15:30:48.022Z,76.50
2018-03-20T15:33:15.571Z,76.60
2018-03-20T15:35:43.148Z,77.70
2018-03-20T15:38:10.680Z,77.70
2018-03-20T15:40:38.270Z,78.40
2018-03-20T15:43:05.806Z,79.10
2018-03-20T15:45:33.345Z,79.10
2018-03-20T15:48:00.917Z,80.20
2018-03-20T15:50:28.485Z,80.30
2018-03-20T15:52:56.083Z,80.60
2018-03-20T15:55:23.597Z,81.30
2018-03-20T15:57:51.132Z,81.50
2018-03-20T16:00:18.710Z,81.80
2018-03-20T16:02:46.744Z,81.40
2018-03-20T16:05:14.304Z,81.20
2018-03-20T16:07:41.878Z,81.20
2018-03-20T16:10:09.916Z,81.30
2018-03-20T16:12:37.529Z,81.30
2018-03-20T16:15:05.515Z,81.40
2018-03-20T16:17:33.067Z,81.30
2018-03-20T16:20:00.869Z,81.80
2018-03-20T16:22:28.634Z,82.00
2018-03-20T16:24:57.439Z,81.70
2018-03-20T16:27:25.019Z,81.90
2018-03-20T16:29:52.942Z,81.60
2018-03-20T16:32:20.511Z,81.60
2018-03-20T16:34:48.071Z,82.00
2018-03-20T16:37:15.590Z,82.00
2018-03-20T16:39:43.210Z,81.60
2018-03-20T16:42:11.186Z,81.10
2018-03-20T16:44:39.191Z,81.10
2018-03-20T16:47:07.070Z,81.10
2018-03-20T16:49:35.286Z,81.30
2018-03-20T16:52:02.855Z,81.50
2018-03-20T16:54:30.798Z,80.90
2018-03-20T16:56:58.363Z,80.90
2018-03-20T16:59:25.953Z,80.90
2018-03-20T17:01:53.497Z,80.40
2018-03-20T17:04:21.026Z,79.00
2018-03-20T17:06:48.583Z,78.40
2018-03-20T17:09:16.147Z,77.10
2018-03-20T17:11:43.730Z,73.30
2018-03-20T17:14:11.787Z,67.60
2018-03-20T17:16:39.977Z,63.00
2018-03-20T17:19:07.546Z,60.80
2018-03-20T17:21:35.568Z,61.00
2018-03-20T17:24:03.057Z,61.00
2018-03-20T17:26:31.062Z,63.30
2018-03-20T17:28:59.530Z,70.00
2018-03-20T17:31:27.526Z,73.10
2018-03-20T17:33:55.421Z,73.10
2018-03-20T17:36:22.990Z,75.50
2018-03-20T17:38:50.692Z,77.90
2018-03-20T17:41:18.682Z,81.80
2018-03-20T17:43:46.221Z,81.80
2018-03-20T17:46:15.108Z,84.40
2018-03-20T17:48:42.698Z,84.40
2018-03-20T17:51:10.416Z,85.60
2018-03-20T17:53:38.498Z,88.00
2018-03-20T17:56:06.407Z,88.00
2018-03-20T17:58:34.173Z,88.60
